sensor_id;sensor_type;location;lat;lon;timestamp;temperature;humidity
11700;DHT22;5906;51.660;6.674;2023-04-24T00:01:13;11.00;99.90
11700;DHT22;5906;51.660;6.674;2023-04-24T00:03:40;11.00;99.90
11700;DHT22;5906;51.660;6.674;2023-04-24T00:06:08;11.00;99.90
11700;DHT22;5906;51.660;6.674;2023-04-24T00:08:35;11.00;99.90
11700;DHT22;5906;51.660;6.674;2023-04-24T00:11:02;11.10;99.90
11700;DHT22;5906;51.660;6.674;2023-04-24T00:13:29;11.00;99.90
11700;DHT22;5906;51.660;6.674;2023-04-24T00:15:57;11.00;99.90
11700;DHT22;5906;51.660;6.674;2023-04-24T00:18:27;11.10;99.90
11700;DHT22;5906;51.660;6.674;2023-04-24T00:20:54;11.10;99.90
11700;DHT22;5906;51.660;6.674;2023-04-24T00:23:21;11.10;99.90
11700;DHT22;5906;51.660;6.674;2023-04-24T00:25:48;11.10;99.90
11700;DHT22;5906;51.660;6.674;2023-04-24T00:28:15;11.10;99.90
11700;DHT22;5906;51.660;6.674;2023-04-24T00:30:42;11.10;99.90
11700;DHT22;5906;51.660;6.674;2023-04-24T00:33:08;11.00;99.90
11700;DHT22;5906;51.660;6.674;2023-04-24T00:35:36;11.00;99.90
11700;DHT22;5906;51.660;6.674;2023-04-24T00:38:03;11.00;99.90
11700;DHT22;5906;51.660;6.674;2023-04-24T00:40:30;11.00;99.90
11700;DHT22;5906;51.660;6.674;2023-04-24T00:42:57;11.00;99.90
11700;DHT22;5906;51.660;6.674;2023-04-24T00:45:24;11.00;99.90
11700;DHT22;5906;51.660;6.674;2023-04-24T00:47:52;11.00;99.90
11700;DHT22;5906;51.660;6.674;2023-04-24T00:50:21;11.00;99.90
11700;DHT22;5906;51.660;6.674;2023-04-24T00:52:48;11.00;1.00
11700;DHT22;5906;51.660;6.674;2023-04-24T00:55:15;10.90;1.00
11700;DHT22;5906;51.660;6.674;2023-04-24T00:57:43;10.90;99.90
11700;DHT22;5906;51.660;6.674;2023-04-24T01:00:10;10.90;99.90
11700;DHT22;5906;51.660;6.674;2023-04-24T01:02:44;10.90;99.90
11700;DHT22;5906;51.660;6.674;2023-04-24T01:05:14;10.90;99.90
11700;DHT22;5906;51.660;6.674;2023-04-24T01:07:43;10.90;1.00
11700;DHT22;5906;51.660;6.674;2023-04-24T01:10:13;10.90;1.00
11700;DHT22;5906;51.660;6.674;2023-04-24T01:12:40;10.90;99.90
11700;DHT22;5906;51.660;6.674;2023-04-24T01:15:08;10.80;99.90
11700;DHT22;5906;51.660;6.674;2023-04-24T01:17:35;10.80;99.90
11700;DHT22;5906;51.660;6.674;2023-04-24T01:20:03;10.80;99.90
11700;DHT22;5906;51.660;6.674;2023-04-24T01:22:35;10.80;99.90
11700;DHT22;5906;51.660;6.674;2023-04-24T01:25:03;10.70;99.90
11700;DHT22;5906;51.660;6.674;2023-04-24T01:27:30;10.70;99.90
11700;DHT22;5906;51.660;6.674;2023-04-24T01:29:57;10.70;99.90
11700;DHT22;5906;51.660;6.674;2023-04-24T01:32:25;10.70;99.90
11700;DHT22;5906;51.660;6.674;2023-04-24T01:34:52;10.70;99.90
11700;DHT22;5906;51.660;6.674;2023-04-24T01:37:19;10.70;99.90
11700;DHT22;5906;51.660;6.674;2023-04-24T01:39:46;10.60;99.90
11700;DHT22;5906;51.660;6.674;2023-04-24T01:42:13;10.60;99.90
11700;DHT22;5906;51.660;6.674;2023-04-24T01:44:41;10.50;99.90
11700;DHT22;5906;51.660;6.674;2023-04-24T01:47:09;10.50;99.90
11700;DHT22;5906;51.660;6.674;2023-04-24T01:49:38;10.50;99.90
11700;DHT22;5906;51.660;6.674;2023-04-24T01:52:05;10.50;99.90
11700;DHT22;5906;51.660;6.674;2023-04-24T01:54:32;10.40;99.90
11700;DHT22;5906;51.660;6.674;2023-04-24T01:56:59;10.40;99.90
11700;DHT22;5906;51.660;6.674;2023-04-24T01:59:28;10.40;99.90
11700;DHT22;5906;51.660;6.674;2023-04-24T02:01:55;10.40;99.90
11700;DHT22;5906;51.660;6.674;2023-04-24T02:04:22;10.40;99.90
11700;DHT22;5906;51.660;6.674;2023-04-24T02:06:49;10.40;99.90
11700;DHT22;5906;51.660;6.674;2023-04-24T02:09:16;10.40;99.90
11700;DHT22;5906;51.660;6.674;2023-04-24T02:11:43;10.40;99.90
11700;DHT22;5906;51.660;6.674;2023-04-24T02:14:10;10.40;99.90
11700;DHT22;5906;51.660;6.674;2023-04-24T02:16:37;10.30;99.90
11700;DHT22;5906;51.660;6.674;2023-04-24T02:19:04;10.30;99.90
11700;DHT22;5906;51.660;6.674;2023-04-24T02:21:31;10.30;99.90
11700;DHT22;5906;51.660;6.674;2023-04-24T02:23:59;10.30;99.90
11700;DHT22;5906;51.660;6.674;2023-04-24T02:26:26;10.20;99.90
11700;DHT22;5906;51.660;6.674;2023-04-24T02:28:53;10.10;99.90
11700;DHT22;5906;51.660;6.674;2023-04-24T02:31:20;10.10;99.90
11700;DHT22;5906;51.660;6.674;2023-04-24T02:33:47;10.00;99.90
11700;DHT22;5906;51.660;6.674;2023-04-24T02:36:14;10.00;99.90
11700;DHT22;5906;51.660;6.674;2023-04-24T02:38:41;10.00;99.90
11700;DHT22;5906;51.660;6.674;2023-04-24T02:41:08;10.00;99.90
11700;DHT22;5906;51.660;6.674;2023-04-24T02:43:35;10.00;99.90
11700;DHT22;5906;51.660;6.674;2023-04-24T02:46:02;10.00;99.90
11700;DHT22;5906;51.660;6.674;2023-04-24T02:48:29;10.00;99.90
11700;DHT22;5906;51.660;6.674;2023-04-24T02:50:56;10.00;99.90
11700;DHT22;5906;51.660;6.674;2023-04-24T02:53:24;10.00;99.90
11700;DHT22;5906;51.660;6.674;2023-04-24T02:55:51;10.00;99.90
11700;DHT22;5906;51.660;6.674;2023-04-24T02:58:18;10.00;99.90
11700;DHT22;5906;51.660;6.674;2023-04-24T03:00:46;10.00;99.90
11700;DHT22;5906;51.660;6.674;2023-04-24T03:03:14;10.00;99.90
11700;DHT22;5906;51.660;6.674;2023-04-24T03:05:42;10.00;99.90
11700;DHT22;5906;51.660;6.674;2023-04-24T03:08:09;10.10;99.90
11700;DHT22;5906;51.660;6.674;2023-04-24T03:10:40;10.10;99.90
11700;DHT22;5906;51.660;6.674;2023-04-24T03:13:07;10.00;99.90
11700;DHT22;5906;51.660;6.674;2023-04-24T03:15:34;10.10;99.90
11700;DHT22;5906;51.660;6.674;2023-04-24T03:18:01;10.10;99.90
11700;DHT22;5906;51.660;6.674;2023-04-24T03:20:29;10.10;99.90
11700;DHT22;5906;51.660;6.674;2023-04-24T03:22:56;10.20;99.90
11700;DHT22;5906;51.660;6.674;2023-04-24T03:25:23;10.10;99.90
11700;DHT22;5906;51.660;6.674;2023-04-24T03:27:50;10.10;99.90
11700;DHT22;5906;51.660;6.674;2023-04-24T03:30:18;10.10;99.90
11700;DHT22;5906;51.660;6.674;2023-04-24T03:32:45;10.10;99.90
11700;DHT22;5906;51.660;6.674;2023-04-24T03:35:12;10.10;99.90
11700;DHT22;5906;51.660;6.674;2023-04-24T03:37:39;10.10;99.90
11700;DHT22;5906;51.660;6.674;2023-04-24T03:40:06;10.00;99.90
11700;DHT22;5906;51.660;6.674;2023-04-24T03:42:34;10.00;99.90
11700;DHT22;5906;51.660;6.674;2023-04-24T03:45:05;10.00;99.90
11700;DHT22;5906;51.660;6.674;2023-04-24T03:47:32;10.00;99.90
11700;DHT22;5906;51.660;6.674;2023-04-24T03:49:59;10.00;99.90
11700;DHT22;5906;51.660;6.674;2023-04-24T03:52:26;10.00;99.90
11700;DHT22;5906;51.660;6.674;2023-04-24T03:54:53;10.00;99.90
11700;DHT22;5906;51.660;6.674;2023-04-24T03:57:20;10.00;99.90
11700;DHT22;5906;51.660;6.674;2023-04-24T03:59:47;10.00;99.90
11700;DHT22;5906;51.660;6.674;2023-04-24T04:02:14;10.00;99.90
11700;DHT22;5906;51.660;6.674;2023-04-24T04:04:41;10.00;99.90
11700;DHT22;5906;51.660;6.674;2023-04-24T04:07:09;10.00;99.90
11700;DHT22;5906;51.660;6.674;2023-04-24T04:09:36;10.00;99.90
11700;DHT22;5906;51.660;6.674;2023-04-24T04:12:03;10.00;99.90
11700;DHT22;5906;51.660;6.674;2023-04-24T04:14:30;10.10;99.90
11700;DHT22;5906;51.660;6.674;2023-04-24T04:16:57;10.10;99.90
11700;DHT22;5906;51.660;6.674;2023-04-24T04:19:24;10.10;99.90
11700;DHT22;5906;51.660;6.674;2023-04-24T04:21:51;10.10;99.90
11700;DHT22;5906;51.660;6.674;2023-04-24T04:24:22;10.00;99.90
11700;DHT22;5906;51.660;6.674;2023-04-24T04:26:50;10.00;99.90
11700;DHT22;5906;51.660;6.674;2023-04-24T04:29:19;10.10;99.90
11700;DHT22;5906;51.660;6.674;2023-04-24T04:31:48;10.10;99.90
11700;DHT22;5906;51.660;6.674;2023-04-24T04:34:15;10.10;99.90
11700;DHT22;5906;51.660;6.674;2023-04-24T04:36:42;10.10;99.90
11700;DHT22;5906;51.660;6.674;2023-04-24T04:39:10;10.10;99.90
11700;DHT22;5906;51.660;6.674;2023-04-24T04:41:38;10.10;99.90
11700;DHT22;5906;51.660;6.674;2023-04-24T04:44:07;10.10;99.90
11700;DHT22;5906;51.660;6.674;2023-04-24T04:46:35;10.10;99.90
11700;DHT22;5906;51.660;6.674;2023-04-24T04:49:04;10.10;99.90
11700;DHT22;5906;51.660;6.674;2023-04-24T04:51:31;10.00;99.90
11700;DHT22;5906;51.660;6.674;2023-04-24T04:53:58;10.00;99.90
11700;DHT22;5906;51.660;6.674;2023-04-24T04:56:25;10.00;99.90
11700;DHT22;5906;51.660;6.674;2023-04-24T04:58:52;10.10;99.90
11700;DHT22;5906;51.660;6.674;2023-04-24T05:01:19;10.10;99.90
11700;DHT22;5906;51.660;6.674;2023-04-24T05:03:46;10.10;99.90
11700;DHT22;5906;51.660;6.674;2023-04-24T05:06:14;10.00;99.90
11700;DHT22;5906;51.660;6.674;2023-04-24T05:08:41;10.10;99.90
11700;DHT22;5906;51.660;6.674;2023-04-24T05:11:08;10.10;99.90
11700;DHT22;5906;51.660;6.674;2023-04-24T05:13:35;10.10;99.90
11700;DHT22;5906;51.660;6.674;2023-04-24T05:16:07;9.90;99.90
11700;DHT22;5906;51.660;6.674;2023-04-24T05:18:34;9.80;99.90
11700;DHT22;5906;51.660;6.674;2023-04-24T05:21:01;9.80;99.90
11700;DHT22;5906;51.660;6.674;2023-04-24T05:23:29;9.70;99.90
11700;DHT22;5906;51.660;6.674;2023-04-24T05:25:56;9.60;99.90
11700;DHT22;5906;51.660;6.674;2023-04-24T05:28:24;9.60;99.90
11700;DHT22;5906;51.660;6.674;2023-04-24T05:30:55;9.60;99.90
11700;DHT22;5906;51.660;6.674;2023-04-24T05:33:22;9.60;99.90
11700;DHT22;5906;51.660;6.674;2023-04-24T05:35:49;9.60;99.90
11700;DHT22;5906;51.660;6.674;2023-04-24T05:38:16;9.60;99.90
11700;DHT22;5906;51.660;6.674;2023-04-24T05:40:46;9.60;99.90
11700;DHT22;5906;51.660;6.674;2023-04-24T05:43:13;9.60;99.90
11700;DHT22;5906;51.660;6.674;2023-04-24T05:45:40;9.60;99.90
11700;DHT22;5906;51.660;6.674;2023-04-24T05:48:07;9.50;99.90
11700;DHT22;5906;51.660;6.674;2023-04-24T05:50:34;9.60;99.90
11700;DHT22;5906;51.660;6.674;2023-04-24T05:53:03;9.60;99.90
11700;DHT22;5906;51.660;6.674;2023-04-24T05:55:30;9.60;99.90
11700;DHT22;5906;51.660;6.674;2023-04-24T05:57:58;9.60;99.90
11700;DHT22;5906;51.660;6.674;2023-04-24T06:00:25;9.70;99.90
11700;DHT22;5906;51.660;6.674;2023-04-24T06:02:53;9.70;99.90
11700;DHT22;5906;51.660;6.674;2023-04-24T06:05:21;9.70;99.90
11700;DHT22;5906;51.660;6.674;2023-04-24T06:07:48;9.80;99.90
11700;DHT22;5906;51.660;6.674;2023-04-24T06:10:15;9.70;99.90
11700;DHT22;5906;51.660;6.674;2023-04-24T06:12:42;9.60;99.90
11700;DHT22;5906;51.660;6.674;2023-04-24T06:15:10;9.60;99.90
11700;DHT22;5906;51.660;6.674;2023-04-24T06:17:37;9.60;99.90
11700;DHT22;5906;51.660;6.674;2023-04-24T06:20:05;9.60;99.90
11700;DHT22;5906;51.660;6.674;2023-04-24T06:22:33;9.70;99.90
11700;DHT22;5906;51.660;6.674;2023-04-24T06:25:00;9.70;99.90
11700;DHT22;5906;51.660;6.674;2023-04-24T06:27:28;9.60;99.90
11700;DHT22;5906;51.660;6.674;2023-04-24T06:29:55;9.70;99.90
11700;DHT22;5906;51.660;6.674;2023-04-24T06:32:23;9.60;99.90
11700;DHT22;5906;51.660;6.674;2023-04-24T06:34:51;9.60;99.90
11700;DHT22;5906;51.660;6.674;2023-04-24T06:37:20;9.50;99.90
11700;DHT22;5906;51.660;6.674;2023-04-24T06:39:47;9.60;99.90
11700;DHT22;5906;51.660;6.674;2023-04-24T06:42:14;9.50;99.90
11700;DHT22;5906;51.660;6.674;2023-04-24T06:44:41;9.60;99.90
11700;DHT22;5906;51.660;6.674;2023-04-24T06:47:12;9.60;99.90
11700;DHT22;5906;51.660;6.674;2023-04-24T06:49:42;9.60;99.90
11700;DHT22;5906;51.660;6.674;2023-04-24T06:52:09;9.60;99.90
11700;DHT22;5906;51.660;6.674;2023-04-24T06:54:36;9.60;99.90
11700;DHT22;5906;51.660;6.674;2023-04-24T06:57:03;9.60;99.90
11700;DHT22;5906;51.660;6.674;2023-04-24T06:59:30;9.60;99.90
11700;DHT22;5906;51.660;6.674;2023-04-24T07:01:57;9.60;99.90
11700;DHT22;5906;51.660;6.674;2023-04-24T07:04:24;9.60;99.90
11700;DHT22;5906;51.660;6.674;2023-04-24T07:06:52;9.60;99.90
11700;DHT22;5906;51.660;6.674;2023-04-24T07:09:23;9.70;99.90
11700;DHT22;5906;51.660;6.674;2023-04-24T07:11:52;9.60;99.90
11700;DHT22;5906;51.660;6.674;2023-04-24T07:14:20;9.60;99.90
11700;DHT22;5906;51.660;6.674;2023-04-24T07:16:47;9.60;99.90
11700;DHT22;5906;51.660;6.674;2023-04-24T07:19:14;9.70;99.90
11700;DHT22;5906;51.660;6.674;2023-04-24T07:21:41;9.60;99.90
11700;DHT22;5906;51.660;6.674;2023-04-24T07:24:08;9.70;99.90
11700;DHT22;5906;51.660;6.674;2023-04-24T07:26:38;9.80;99.90
11700;DHT22;5906;51.660;6.674;2023-04-24T07:29:06;9.70;99.90
11700;DHT22;5906;51.660;6.674;2023-04-24T07:31:33;9.70;99.90
11700;DHT22;5906;51.660;6.674;2023-04-24T07:34:01;9.70;99.90
11700;DHT22;5906;51.660;6.674;2023-04-24T07:36:28;9.70;99.90
11700;DHT22;5906;51.660;6.674;2023-04-24T07:38:55;9.70;99.90
11700;DHT22;5906;51.660;6.674;2023-04-24T07:41:25;9.70;99.90
11700;DHT22;5906;51.660;6.674;2023-04-24T07:43:52;9.60;99.90
11700;DHT22;5906;51.660;6.674;2023-04-24T07:46:20;9.60;99.90
11700;DHT22;5906;51.660;6.674;2023-04-24T07:48:47;9.60;99.90
11700;DHT22;5906;51.660;6.674;2023-04-24T07:51:31;9.60;99.90
11700;DHT22;5906;51.660;6.674;2023-04-24T07:54:00;9.60;99.90
11700;DHT22;5906;51.660;6.674;2023-04-24T07:56:27;9.60;99.90
11700;DHT22;5906;51.660;6.674;2023-04-24T07:58:58;9.60;99.90
11700;DHT22;5906;51.660;6.674;2023-04-24T08:01:25;9.60;99.90
11700;DHT22;5906;51.660;6.674;2023-04-24T08:03:52;9.60;99.90
11700;DHT22;5906;51.660;6.674;2023-04-24T08:06:20;9.60;99.90
11700;DHT22;5906;51.660;6.674;2023-04-24T08:08:46;9.70;99.90
11700;DHT22;5906;51.660;6.674;2023-04-24T08:11:14;9.70;99.90
11700;DHT22;5906;51.660;6.674;2023-04-24T08:13:41;9.80;99.90
11700;DHT22;5906;51.660;6.674;2023-04-24T08:16:07;9.80;99.90
11700;DHT22;5906;51.660;6.674;2023-04-24T08:18:34;9.80;99.90
11700;DHT22;5906;51.660;6.674;2023-04-24T08:21:02;9.80;99.90
11700;DHT22;5906;51.660;6.674;2023-04-24T08:23:30;9.80;99.90
11700;DHT22;5906;51.660;6.674;2023-04-24T08:25:57;9.70;99.90
11700;DHT22;5906;51.660;6.674;2023-04-24T08:28:24;9.80;99.90
11700;DHT22;5906;51.660;6.674;2023-04-24T08:30:51;9.80;99.90
11700;DHT22;5906;51.660;6.674;2023-04-24T08:33:22;9.80;99.90
11700;DHT22;5906;51.660;6.674;2023-04-24T08:35:50;10.00;99.90
11700;DHT22;5906;51.660;6.674;2023-04-24T08:38:17;10.10;99.90
11700;DHT22;5906;51.660;6.674;2023-04-24T08:40:44;10.20;99.90
11700;DHT22;5906;51.660;6.674;2023-04-24T08:43:13;10.20;99.90
11700;DHT22;5906;51.660;6.674;2023-04-24T08:45:41;10.30;99.90
11700;DHT22;5906;51.660;6.674;2023-04-24T08:48:09;10.30;99.90
11700;DHT22;5906;51.660;6.674;2023-04-24T08:50:53;10.40;99.90
11700;DHT22;5906;51.660;6.674;2023-04-24T08:53:21;10.30;99.90
11700;DHT22;5906;51.660;6.674;2023-04-24T08:55:48;10.40;99.90
11700;DHT22;5906;51.660;6.674;2023-04-24T08:58:16;10.40;99.90
11700;DHT22;5906;51.660;6.674;2023-04-24T09:00:44;10.30;99.90
11700;DHT22;5906;51.660;6.674;2023-04-24T09:03:15;10.20;99.90
11700;DHT22;5906;51.660;6.674;2023-04-24T09:05:44;10.10;99.90
11700;DHT22;5906;51.660;6.674;2023-04-24T09:08:17;10.10;99.90
11700;DHT22;5906;51.660;6.674;2023-04-24T09:10:44;10.00;99.90
11700;DHT22;5906;51.660;6.674;2023-04-24T09:13:13;9.80;99.90
11700;DHT22;5906;51.660;6.674;2023-04-24T09:15:41;9.80;99.90
11700;DHT22;5906;51.660;6.674;2023-04-24T09:18:08;9.70;99.90
11700;DHT22;5906;51.660;6.674;2023-04-24T09:20:35;9.60;99.90
11700;DHT22;5906;51.660;6.674;2023-04-24T09:23:22;9.70;99.90
11700;DHT22;5906;51.660;6.674;2023-04-24T09:25:54;9.60;99.90
11700;DHT22;5906;51.660;6.674;2023-04-24T09:28:35;9.50;99.90
11700;DHT22;5906;51.660;6.674;2023-04-24T09:31:07;9.50;99.90
11700;DHT22;5906;51.660;6.674;2023-04-24T09:33:35;9.50;99.90
11700;DHT22;5906;51.660;6.674;2023-04-24T09:36:03;9.50;99.90
11700;DHT22;5906;51.660;6.674;2023-04-24T09:38:33;9.50;99.90
11700;DHT22;5906;51.660;6.674;2023-04-24T09:41:05;9.50;99.90
11700;DHT22;5906;51.660;6.674;2023-04-24T09:43:34;9.50;99.90
11700;DHT22;5906;51.660;6.674;2023-04-24T09:46:06;9.50;99.90
11700;DHT22;5906;51.660;6.674;2023-04-24T09:48:35;9.50;99.90
11700;DHT22;5906;51.660;6.674;2023-04-24T09:51:05;9.50;99.90
11700;DHT22;5906;51.660;6.674;2023-04-24T09:53:33;9.50;99.90
11700;DHT22;5906;51.660;6.674;2023-04-24T09:56:10;9.60;99.90
11700;DHT22;5906;51.660;6.674;2023-04-24T09:58:39;9.70;99.90
11700;DHT22;5906;51.660;6.674;2023-04-24T10:01:06;9.70;99.90
11700;DHT22;5906;51.660;6.674;2023-04-24T10:03:34;9.70;99.90
11700;DHT22;5906;51.660;6.674;2023-04-24T10:06:03;9.80;99.90
11700;DHT22;5906;51.660;6.674;2023-04-24T10:08:36;9.80;99.90
11700;DHT22;5906;51.660;6.674;2023-04-24T10:11:04;9.80;99.90
11700;DHT22;5906;51.660;6.674;2023-04-24T10:13:32;9.90;99.90
11700;DHT22;5906;51.660;6.674;2023-04-24T10:16:00;9.90;99.90
11700;DHT22;5906;51.660;6.674;2023-04-24T10:18:28;9.90;99.90
11700;DHT22;5906;51.660;6.674;2023-04-24T10:20:56;9.90;99.90
11700;DHT22;5906;51.660;6.674;2023-04-24T10:23:25;9.90;99.90
11700;DHT22;5906;51.660;6.674;2023-04-24T10:25:52;9.90;99.90
11700;DHT22;5906;51.660;6.674;2023-04-24T10:28:20;9.90;99.90
11700;DHT22;5906;51.660;6.674;2023-04-24T10:30:49;9.80;99.90
11700;DHT22;5906;51.660;6.674;2023-04-24T10:33:17;9.80;99.90
11700;DHT22;5906;51.660;6.674;2023-04-24T10:35:47;9.70;99.90
11700;DHT22;5906;51.660;6.674;2023-04-24T10:38:22;9.70;99.90
11700;DHT22;5906;51.660;6.674;2023-04-24T10:40:51;9.70;99.90
11700;DHT22;5906;51.660;6.674;2023-04-24T10:43:24;9.60;99.90
11700;DHT22;5906;51.660;6.674;2023-04-24T10:46:05;9.60;99.90
11700;DHT22;5906;51.660;6.674;2023-04-24T10:48:33;9.70;99.90
11700;DHT22;5906;51.660;6.674;2023-04-24T10:51:01;9.80;99.90
11700;DHT22;5906;51.660;6.674;2023-04-24T10:53:30;9.90;99.90
11700;DHT22;5906;51.660;6.674;2023-04-24T10:56:08;10.00;99.90
11700;DHT22;5906;51.660;6.674;2023-04-24T10:58:41;10.10;99.90
11700;DHT22;5906;51.660;6.674;2023-04-24T11:01:38;10.30;99.90
11700;DHT22;5906;51.660;6.674;2023-04-24T11:04:05;10.50;99.90
11700;DHT22;5906;51.660;6.674;2023-04-24T11:06:33;10.80;99.90
11700;DHT22;5906;51.660;6.674;2023-04-24T11:11:32;11.20;99.90
11700;DHT22;5906;51.660;6.674;2023-04-24T11:16:32;11.60;99.90
11700;DHT22;5906;51.660;6.674;2023-04-24T11:21:47;11.70;1.00
11700;DHT22;5906;51.660;6.674;2023-04-24T11:24:48;11.90;1.00
11700;DHT22;5906;51.660;6.674;2023-04-24T11:27:20;12.10;51.50
11700;DHT22;5906;51.660;6.674;2023-04-24T11:32:47;12.10;1.00
11700;DHT22;5906;51.660;6.674;2023-04-24T11:35:15;12.20;1.00
11700;DHT22;5906;51.660;6.674;2023-04-24T11:37:47;12.30;36.30
11700;DHT22;5906;51.660;6.674;2023-04-24T11:40:22;12.30;1.00
11700;DHT22;5906;51.660;6.674;2023-04-24T11:42:51;12.30;99.90
11700;DHT22;5906;51.660;6.674;2023-04-24T11:45:29;12.30;99.90
11700;DHT22;5906;51.660;6.674;2023-04-24T11:47:57;12.20;1.00
11700;DHT22;5906;51.660;6.674;2023-04-24T11:50:25;12.00;1.00
11700;DHT22;5906;51.660;6.674;2023-04-24T11:52:53;12.00;1.00
11700;DHT22;5906;51.660;6.674;2023-04-24T11:57:55;12.30;96.40
11700;DHT22;5906;51.660;6.674;2023-04-24T12:00:32;12.40;1.00
11700;DHT22;5906;51.660;6.674;2023-04-24T12:03:08;12.40;1.00
11700;DHT22;5906;51.660;6.674;2023-04-24T12:05:35;12.50;1.00
11700;DHT22;5906;51.660;6.674;2023-04-24T12:08:03;12.30;99.80
11700;DHT22;5906;51.660;6.674;2023-04-24T12:10:31;12.20;1.00
11700;DHT22;5906;51.660;6.674;2023-04-24T12:12:59;12.30;99.90
11700;DHT22;5906;51.660;6.674;2023-04-24T12:15:27;12.40;1.00
11700;DHT22;5906;51.660;6.674;2023-04-24T12:17:55;12.40;1.00
11700;DHT22;5906;51.660;6.674;2023-04-24T12:20:27;12.30;78.10
11700;DHT22;5906;51.660;6.674;2023-04-24T12:22:56;12.20;1.00
11700;DHT22;5906;51.660;6.674;2023-04-24T12:25:25;12.10;1.00
11700;DHT22;5906;51.660;6.674;2023-04-24T12:28:09;12.00;1.00
11700;DHT22;5906;51.660;6.674;2023-04-24T12:30:42;12.00;1.00
11700;DHT22;5906;51.660;6.674;2023-04-24T12:33:11;12.00;1.00
11700;DHT22;5906;51.660;6.674;2023-04-24T12:35:40;12.00;1.00
11700;DHT22;5906;51.660;6.674;2023-04-24T12:38:12;12.10;99.90
11700;DHT22;5906;51.660;6.674;2023-04-24T12:40:41;12.10;1.00
11700;DHT22;5906;51.660;6.674;2023-04-24T12:43:16;12.00;99.90
11700;DHT22;5906;51.660;6.674;2023-04-24T12:45:43;11.80;1.00
11700;DHT22;5906;51.660;6.674;2023-04-24T12:48:12;11.60;1.00
11700;DHT22;5906;51.660;6.674;2023-04-24T12:50:41;11.50;1.00
11700;DHT22;5906;51.660;6.674;2023-04-24T12:53:11;11.30;40.10
11700;DHT22;5906;51.660;6.674;2023-04-24T12:55:38;11.30;1.00
11700;DHT22;5906;51.660;6.674;2023-04-24T12:58:05;11.20;1.00
11700;DHT22;5906;51.660;6.674;2023-04-24T13:00:32;11.10;9.60
11700;DHT22;5906;51.660;6.674;2023-04-24T13:03:00;11.00;1.00
11700;DHT22;5906;51.660;6.674;2023-04-24T13:05:27;11.00;1.00
11700;DHT22;5906;51.660;6.674;2023-04-24T13:07:54;11.00;1.00
11700;DHT22;5906;51.660;6.674;2023-04-24T13:10:21;11.10;1.00
11700;DHT22;5906;51.660;6.674;2023-04-24T13:12:48;11.10;99.90
11700;DHT22;5906;51.660;6.674;2023-04-24T13:15:16;11.30;1.00
11700;DHT22;5906;51.660;6.674;2023-04-24T13:17:43;11.40;1.00
11700;DHT22;5906;51.660;6.674;2023-04-24T13:20:10;11.50;1.00
11700;DHT22;5906;51.660;6.674;2023-04-24T13:22:37;11.60;99.90
11700;DHT22;5906;51.660;6.674;2023-04-24T13:25:04;11.60;99.90
11700;DHT22;5906;51.660;6.674;2023-04-24T13:27:33;11.70;1.00
11700;DHT22;5906;51.660;6.674;2023-04-24T13:30:00;11.70;1.00
11700;DHT22;5906;51.660;6.674;2023-04-24T13:32:27;11.70;1.00
11700;DHT22;5906;51.660;6.674;2023-04-24T13:34:56;11.60;1.00
11700;DHT22;5906;51.660;6.674;2023-04-24T13:37:23;11.60;99.90
11700;DHT22;5906;51.660;6.674;2023-04-24T13:39:50;11.70;1.00
11700;DHT22;5906;51.660;6.674;2023-04-24T13:42:18;11.70;1.00
11700;DHT22;5906;51.660;6.674;2023-04-24T13:44:46;11.70;1.00
11700;DHT22;5906;51.660;6.674;2023-04-24T13:47:13;11.80;1.00
11700;DHT22;5906;51.660;6.674;2023-04-24T13:49:40;11.80;1.00
11700;DHT22;5906;51.660;6.674;2023-04-24T13:52:07;11.70;13.30
11700;DHT22;5906;51.660;6.674;2023-04-24T13:54:34;11.60;99.90
11700;DHT22;5906;51.660;6.674;2023-04-24T13:57:03;11.40;99.90
11700;DHT22;5906;51.660;6.674;2023-04-24T13:59:30;11.20;99.90
11700;DHT22;5906;51.660;6.674;2023-04-24T14:01:57;11.10;1.00
11700;DHT22;5906;51.660;6.674;2023-04-24T14:04:24;10.90;1.00
11700;DHT22;5906;51.660;6.674;2023-04-24T14:06:51;10.70;1.00
11700;DHT22;5906;51.660;6.674;2023-04-24T14:09:18;10.50;99.90
11700;DHT22;5906;51.660;6.674;2023-04-24T14:11:45;10.50;99.90
11700;DHT22;5906;51.660;6.674;2023-04-24T14:14:12;10.60;99.90
11700;DHT22;5906;51.660;6.674;2023-04-24T14:16:40;10.70;99.90
11700;DHT22;5906;51.660;6.674;2023-04-24T14:19:07;10.80;99.90
11700;DHT22;5906;51.660;6.674;2023-04-24T14:21:33;11.10;99.90
11700;DHT22;5906;51.660;6.674;2023-04-24T14:24:00;11.30;99.90
11700;DHT22;5906;51.660;6.674;2023-04-24T14:26:27;11.60;99.90
11700;DHT22;5906;51.660;6.674;2023-04-24T14:28:54;12.00;99.90
11700;DHT22;5906;51.660;6.674;2023-04-24T14:31:39;12.10;99.90
11700;DHT22;5906;51.660;6.674;2023-04-24T14:34:06;12.10;99.90
11700;DHT22;5906;51.660;6.674;2023-04-24T14:36:33;12.00;99.90
11700;DHT22;5906;51.660;6.674;2023-04-24T14:39:00;12.00;99.90
11700;DHT22;5906;51.660;6.674;2023-04-24T14:41:30;12.10;99.90
11700;DHT22;5906;51.660;6.674;2023-04-24T14:43:56;12.30;99.90
11700;DHT22;5906;51.660;6.674;2023-04-24T14:46:24;12.50;99.90
11700;DHT22;5906;51.660;6.674;2023-04-24T14:48:51;12.70;99.90
11700;DHT22;5906;51.660;6.674;2023-04-24T14:51:18;12.70;1.00
11700;DHT22;5906;51.660;6.674;2023-04-24T14:53:44;12.60;1.00
11700;DHT22;5906;51.660;6.674;2023-04-24T14:56:15;12.60;14.40
11700;DHT22;5906;51.660;6.674;2023-04-24T14:58:42;12.50;99.90
11700;DHT22;5906;51.660;6.674;2023-04-24T15:01:10;12.50;1.00
11700;DHT22;5906;51.660;6.674;2023-04-24T15:03:37;12.40;1.00
11700;DHT22;5906;51.660;6.674;2023-04-24T15:06:05;12.10;99.90
11700;DHT22;5906;51.660;6.674;2023-04-24T15:08:32;12.00;99.90
11700;DHT22;5906;51.660;6.674;2023-04-24T15:10:59;11.80;1.00
11700;DHT22;5906;51.660;6.674;2023-04-24T15:13:26;11.60;99.90
11700;DHT22;5906;51.660;6.674;2023-04-24T15:15:53;11.40;1.00
11700;DHT22;5906;51.660;6.674;2023-04-24T15:18:20;11.10;1.00
11700;DHT22;5906;51.660;6.674;2023-04-24T15:20:47;11.10;1.00
11700;DHT22;5906;51.660;6.674;2023-04-24T15:23:14;10.90;63.10
11700;DHT22;5906;51.660;6.674;2023-04-24T15:25:41;10.90;99.90
11700;DHT22;5906;51.660;6.674;2023-04-24T15:28:08;10.80;99.90
11700;DHT22;5906;51.660;6.674;2023-04-24T15:30:36;10.80;99.90
11700;DHT22;5906;51.660;6.674;2023-04-24T15:33:03;10.80;99.90
11700;DHT22;5906;51.660;6.674;2023-04-24T15:35:30;10.90;99.90
11700;DHT22;5906;51.660;6.674;2023-04-24T15:37:57;11.00;99.90
11700;DHT22;5906;51.660;6.674;2023-04-24T15:40:24;11.10;99.90
11700;DHT22;5906;51.660;6.674;2023-04-24T15:42:51;11.10;99.90
11700;DHT22;5906;51.660;6.674;2023-04-24T15:45:18;11.10;17.00
11700;DHT22;5906;51.660;6.674;2023-04-24T15:47:45;11.20;1.00
11700;DHT22;5906;51.660;6.674;2023-04-24T15:50:16;11.10;99.90
11700;DHT22;5906;51.660;6.674;2023-04-24T15:52:45;11.20;1.00
11700;DHT22;5906;51.660;6.674;2023-04-24T15:55:12;11.30;1.00
11700;DHT22;5906;51.660;6.674;2023-04-24T15:57:39;11.40;99.90
11700;DHT22;5906;51.660;6.674;2023-04-24T16:00:07;11.40;99.90
11700;DHT22;5906;51.660;6.674;2023-04-24T16:02:36;11.30;1.00
11700;DHT22;5906;51.660;6.674;2023-04-24T16:05:03;11.10;99.90
11700;DHT22;5906;51.660;6.674;2023-04-24T16:07:31;11.00;17.90
11700;DHT22;5906;51.660;6.674;2023-04-24T16:09:58;10.90;1.00
11700;DHT22;5906;51.660;6.674;2023-04-24T16:12:24;10.90;1.00